Norma, Tennessee
Current Conditions -  °F | °C
As of 1:53 PM on Saturday 25 Oct 2014 (Local Time) from KOQT Reporting Station
Clear Clear  
Wind Chill: 69°   Ceiling: Unl
Heat Index: 69°   Visibility: 10mi
Dew Point: 48°   Wind: 5mph
Humidity: 47%   Direction: NA
Pressure: 30.07"   Gusts: NA
Location:  36.3452°N, 84.4205°W
Report Text: KOQT 251753Z AUTO VRB04KT 10SM CLR 21/09 A3007 RMK AO2 SLP179 T02060089 10206 20050 58019
Loading
Personal Weather Stations






























Interactive Weather Map
Tropical Storm Tracking
New forecast layout! Learn more

10-Day Weather Forecast

Advertisements
Track Severe Weather on mobile